Time;durP1;ratioP1;P1;durP2;ratioP2;P2;SDS_P1;SDS_P2;PMS_P1;PMS_P2;Temp;Humidity;BMP_temperature;BMP_pressure;BME280_temperature;BME280_humidity;BME280_pressure;Samples;Min_cycle;Max_cycle;Signal;HPM_P1;HPM_P2
2022/09/08 04:13:43;;;;;;;7.78;6.10;;;;;;;18.43;100.00;99714.53;5035835;23;20227;-74
2022/09/08 04:16:10;;;;;;;9.75;7.32;;;;;;;18.38;100.00;99714.09;4974767;28;20210;-75
2022/09/08 04:18:36;;;;;;;7.97;6.40;;;;;;;18.21;100.00;99716.47;4974260;28;20587;-74
2022/09/08 04:21:04;;;;;;;8.00;6.50;;;;;;;18.13;100.00;99717.16;4976481;28;20655;-74
2022/09/08 04:23:32;;;;;;;11.60;6.90;;;;;;;18.03;100.00;99716.22;4977757;28;20231;-76
2022/09/08 04:26:00;;;;;;;7.85;6.40;;;;;;;17.90;100.00;99721.84;4976728;28;20200;-75
2022/09/08 04:28:28;;;;;;;9.10;6.78;;;;;;;17.96;100.00;99722.34;4965468;28;20243;-74
2022/09/08 04:30:56;;;;;;;9.93;6.60;;;;;;;17.99;100.00;99733.81;4969244;28;20220;-77
2022/09/08 04:33:22;;;;;;;7.80;6.70;;;;;;;17.94;100.00;99736.09;4973675;28;20246;-75
2022/09/08 04:35:49;;;;;;;7.75;6.60;;;;;;;17.90;100.00;99732.75;4974179;28;20199;-74
2022/09/08 04:38:15;;;;;;;8.23;6.75;;;;;;;17.81;100.00;99741.72;4972542;28;20196;-74
2022/09/08 04:40:42;;;;;;;10.10;7.25;;;;;;;17.71;100.00;99736.19;4971250;28;20199;-74
2022/09/08 04:43:10;;;;;;;9.05;7.80;;;;;;;17.66;100.00;99738.44;4971417;28;20219;-75
2022/09/08 04:45:36;;;;;;;10.93;8.32;;;;;;;17.74;100.00;99739.63;4974816;28;20208;-75
2022/09/08 04:48:04;;;;;;;9.30;7.47;;;;;;;17.69;100.00;99740.88;4981142;28;20203;-75
2022/09/08 04:50:31;;;;;;;9.55;7.03;;;;;;;17.80;100.00;99756.31;4984557;28;20230;-75
2022/09/08 04:52:58;;;;;;;8.93;7.22;;;;;;;17.91;100.00;99750.84;4990004;28;20232;-75
2022/09/08 04:55:24;;;;;;;9.32;6.70;;;;;;;17.70;100.00;99749.91;4981559;28;20204;-75
2022/09/08 04:57:51;;;;;;;10.55;7.20;;;;;;;17.60;100.00;99752.56;4980115;28;20207;-75
2022/09/08 05:00:18;;;;;;;8.75;6.60;;;;;;;17.42;100.00;99762.28;4984796;28;20207;-75
2022/09/08 05:02:46;;;;;;;9.95;7.38;;;;;;;17.41;100.00;99757.81;4977256;28;20290;-75
2022/09/08 05:05:14;;;;;;;11.38;6.95;;;;;;;17.61;100.00;99767.88;4979066;28;20188;-74
2022/09/08 05:07:40;;;;;;;10.30;7.70;;;;;;;17.56;100.00;99772.88;4975578;28;20214;-75
2022/09/08 05:10:07;;;;;;;8.18;7.20;;;;;;;17.51;100.00;99773.25;4977265;28;20705;-75
2022/09/08 05:12:34;;;;;;;11.30;8.05;;;;;;;17.60;100.00;99774.34;4973895;28;20227;-76
2022/09/08 05:15:01;;;;;;;10.38;7.32;;;;;;;17.43;100.00;99772.16;4982824;28;20298;-75
2022/09/08 05:17:29;;;;;;;11.13;8.60;;;;;;;17.43;100.00;99770.31;4979382;28;20200;-75
2022/09/08 05:19:56;;;;;;;12.60;8.38;;;;;;;17.46;100.00;99771.94;4977812;28;20216;-74
2022/09/08 05:22:24;;;;;;;12.93;7.80;;;;;;;17.39;100.00;99767.97;4972780;28;20232;-75
2022/09/08 05:24:52;;;;;;;11.30;7.70;;;;;;;17.46;100.00;99770.06;4977816;28;20267;-74
2022/09/08 05:27:18;;;;;;;10.45;8.23;;;;;;;17.48;100.00;99764.50;4956469;28;20299;-74
2022/09/08 05:29:45;;;;;;;8.57;7.60;;;;;;;17.47;100.00;99765.47;4978009;28;20508;-74
2022/09/08 05:32:11;;;;;;;9.50;8.05;;;;;;;17.53;100.00;99764.97;4961349;28;20224;-74
2022/09/08 05:34:39;;;;;;;9.75;8.30;;;;;;;17.51;100.00;99759.66;4977849;28;20204;-75
2022/09/08 05:37:05;;;;;;;9.27;7.97;;;;;;;17.50;100.00;99744.31;4977096;28;20495;-76
2022/09/08 05:39:33;;;;;;;10.88;8.95;;;;;;;17.64;100.00;99747.75;4964930;28;20621;-74
2022/09/08 05:42:00;;;;;;;12.40;7.60;;;;;;;17.65;100.00;99735.84;4964064;28;20222;-75
2022/09/08 05:44:26;;;;;;;10.18;8.38;;;;;;;17.62;100.00;99731.53;4973947;28;20235;-75
2022/09/08 05:46:53;;;;;;;8.80;6.93;;;;;;;17.64;100.00;99726.81;4958480;29;20205;-74
2022/09/08 05:49:19;;;;;;;10.00;7.70;;;;;;;17.63;100.00;99722.34;4963054;28;20204;-75
2022/09/08 05:51:46;;;;;;;9.50;7.45;;;;;;;17.67;100.00;99712.91;4976564;28;20243;-74
2022/09/08 05:54:12;;;;;;;8.40;6.70;;;;;;;17.72;100.00;99718.81;4977273;28;20657;-74
2022/09/08 05:56:40;;;;;;;9.80;6.97;;;;;;;17.61;100.00;99731.63;4967138;28;20249;-74
2022/09/08 05:59:09;;;;;;;7.65;6.18;;;;;;;17.69;100.00;99734.59;4975500;28;20219;-76
2022/09/08 06:01:35;;;;;;;12.18;6.85;;;;;;;17.69;100.00;99743.59;4969333;28;20211;-75
2022/09/08 06:04:02;;;;;;;9.10;7.15;;;;;;;17.85;100.00;99745.91;4979190;28;20204;-74
2022/09/08 06:06:29;;;;;;;8.45;6.07;;;;;;;17.62;100.00;99744.28;4980470;28;20681;-74
2022/09/08 06:08:59;;;;;;;7.10;6.30;;;;;;;17.59;100.00;99748.13;4987298;28;20207;-75
2022/09/08 06:11:26;;;;;;;7.05;6.35;;;;;;;17.42;100.00;99754.13;4991264;28;20212;-74
2022/09/08 06:13:54;;;;;;;7.30;6.60;;;;;;;17.29;100.00;99765.16;4992634;28;20211;-73
2022/09/08 06:16:21;;;;;;;9.15;5.90;;;;;;;17.45;100.00;99783.78;4983990;28;20211;-74
2022/09/08 06:18:48;;;;;;;7.40;6.10;;;;;;;17.29;100.00;99779.63;4981380;28;20200;-73
2022/09/08 06:21:17;;;;;;;7.07;5.97;;;;;;;17.27;100.00;99786.19;4978155;28;20204;-74
2022/09/08 06:23:44;;;;;;;6.32;5.60;;;;;;;17.23;100.00;99792.88;4974120;28;20308;-74
2022/09/08 06:26:31;;;;;;;9.40;6.35;;;;;;;17.18;100.00;99787.81;4976486;28;20208;-74
2022/09/08 06:29:06;;;;;;;6.20;5.60;;;;;;;17.24;100.00;99792.75;4975515;28;20195;-77
2022/09/08 06:31:35;;;;;;;7.03;5.90;;;;;;;17.23;100.00;99793.78;4976288;28;20716;-75
2022/09/08 06:34:11;;;;;;;7.03;5.88;;;;;;;17.37;100.00;99797.19;4964227;28;20201;-75
2022/09/08 06:36:44;;;;;;;6.72;6.03;;;;;;;17.41;100.00;99798.66;4973035;28;20208;-74
2022/09/08 06:39:16;;;;;;;8.43;6.85;;;;;;;17.43;100.00;99802.13;4971726;28;20212;-75
2022/09/08 06:41:47;;;;;;;7.50;6.70;;;;;;;17.41;100.00;99795.94;4975560;28;20203;-75
2022/09/08 06:44:21;;;;;;;8.27;6.50;;;;;;;17.48;100.00;99799.91;4968724;28;20205;-74
2022/09/08 06:46:48;;;;;;;7.82;6.25;;;;;;;17.41;100.00;99802.25;4976116;28;20207;-74
2022/09/08 06:49:14;;;;;;;7.25;6.55;;;;;;;17.33;100.00;99799.31;4972906;28;20215;-76
2022/09/08 06:51:49;;;;;;;6.78;6.07;;;;;;;17.32;100.00;99802.13;4987754;28;20220;-74
2022/09/08 06:54:32;;;;;;;7.70;6.70;;;;;;;17.39;100.00;99806.06;4977312;28;20207;-76
2022/09/08 06:57:07;;;;;;;7.90;7.10;;;;;;;17.23;100.00;99812.81;4968202;28;20212;-76
2022/09/08 06:59:45;;;;;;;9.13;7.47;;;;;;;17.34;100.00;99811.91;4972704;28;20196;-75
2022/09/08 07:02:32;;;;;;;7.68;6.97;;;;;;;17.29;100.00;99811.44;4963435;28;20235;-73
2022/09/08 07:05:03;;;;;;;8.93;7.70;;;;;;;17.39;100.00;99811.53;4965720;28;20219;-76
2022/09/08 07:07:38;;;;;;;9.05;7.55;;;;;;;17.46;100.00;99807.31;4980990;28;20350;-76
2022/09/08 07:10:11;;;;;;;8.85;7.57;;;;;;;17.51;100.00;99811.38;4975586;28;20208;-76
2022/09/08 07:12:48;;;;;;;11.18;8.70;;;;;;;17.46;100.00;99813.63;4969450;28;20622;-74
2022/09/08 07:15:29;;;;;;;10.82;8.10;;;;;;;17.53;100.00;99808.53;4975044;28;20223;-74
2022/09/08 07:18:04;;;;;;;10.57;7.93;;;;;;;17.48;100.00;99816.22;4968780;28;20678;-75
2022/09/08 07:20:31;;;;;;;9.30;7.82;;;;;;;17.59;100.00;99818.91;4969857;28;20199;-74
2022/09/08 07:23:02;;;;;;;8.45;6.95;;;;;;;17.48;100.00;99808.91;4967779;28;20228;-75
2022/09/08 07:25:33;;;;;;;6.88;6.20;;;;;;;17.56;100.00;99818.28;4968882;28;20612;-74
2022/09/08 07:28:04;;;;;;;8.68;6.38;;;;;;;17.61;100.00;99826.94;4974827;28;20196;-75
2022/09/08 07:30:34;;;;;;;6.78;6.05;;;;;;;17.49;100.00;99813.34;4974409;28;20258;-75
2022/09/08 07:33:08;;;;;;;7.32;6.18;;;;;;;17.53;100.00;99815.84;4975082;28;20220;-77
2022/09/08 07:35:46;;;;;;;7.45;6.38;;;;;;;17.60;100.00;99814.31;4978957;28;20272;-74
2022/09/08 07:38:20;;;;;;;5.90;5.40;;;;;;;17.63;100.00;99823.09;4975335;28;20214;-76
2022/09/08 07:40:51;;;;;;;7.68;5.80;;;;;;;17.56;100.00;99821.88;4976906;28;20203;-75
2022/09/08 07:43:18;;;;;;;9.20;6.57;;;;;;;17.59;100.00;99824.38;4965899;28;20225;-73
2022/09/08 07:45:50;;;;;;;7.10;5.78;;;;;;;17.61;100.00;99825.06;4967939;28;20664;-74
2022/09/08 07:48:30;;;;;;;7.25;6.22;;;;;;;17.60;100.00;99839.69;4971666;28;20207;-74
2022/09/08 07:51:08;;;;;;;6.18;5.43;;;;;;;17.64;100.00;99827.56;4974814;28;20216;-73
2022/09/08 07:54:04;;;;;;;7.60;6.90;;;;;;;17.65;100.00;99821.09;4970939;28;20271;-77
2022/09/08 07:56:40;;;;;;;5.22;4.72;;;;;;;17.65;100.00;99823.81;4969159;28;20201;-73
2022/09/08 07:59:18;;;;;;;8.02;5.00;;;;;;;17.70;100.00;99832.50;4971123;28;20199;-75
2022/09/08 08:01:57;;;;;;;6.15;4.85;;;;;;;17.70;100.00;99832.50;4971402;28;20224;-75
2022/09/08 08:04:50;;;;;;;7.38;5.28;;;;;;;17.71;100.00;99845.09;4962864;28;20574;-75
2022/09/08 08:07:21;;;;;;;7.20;5.20;;;;;;;17.81;100.00;99847.03;4961559;28;20218;-74
2022/09/08 08:09:53;;;;;;;7.43;5.40;;;;;;;17.94;100.00;99853.22;4966759;28;20231;-75
2022/09/08 08:12:27;;;;;;;7.30;4.75;;;;;;;18.09;100.00;99849.19;4967980;28;20223;-75
2022/09/08 08:14:59;;;;;;;4.13;3.60;;;;;;;18.21;100.00;99839.09;4975769;28;20210;-75
2022/09/08 08:17:42;;;;;;;6.18;4.68;;;;;;;18.28;100.00;99831.25;4975552;28;20191;-76
2022/09/08 08:20:29;;;;;;;8.50;4.05;;;;;;;18.40;100.00;99832.03;4981405;28;20203;-75
2022/09/08 08:23:18;;;;;;;6.28;3.72;;;;;;;18.59;100.00;99840.34;4994660;28;20287;-75
2022/09/08 08:25:54;;;;;;;6.03;3.88;;;;;;;18.55;100.00;99827.97;4987067;28;20211;-75
2022/09/08 08:28:23;;;;;;;4.57;3.70;;;;;;;18.60;100.00;99827.59;4995256;28;20255;-74
2022/09/08 08:31:02;;;;;;;4.53;3.00;;;;;;;18.64;100.00;99821.72;4990182;28;20288;-74
2022/09/08 08:33:34;;;;;;;4.47;3.33;;;;;;;18.89;100.00;99812.25;4977278;28;20216;-74
2022/09/08 08:36:05;;;;;;;6.68;3.25;;;;;;;18.93;100.00;99816.44;4993063;28;20247;-73
2022/09/08 08:38:36;;;;;;;4.22;3.25;;;;;;;19.16;100.00;99811.63;4989016;28;20196;-75
2022/09/08 08:41:09;;;;;;;6.03;3.10;;;;;;;19.33;100.00;99804.66;4991224;28;20191;-74
2022/09/08 08:43:59;;;;;;;4.55;2.95;;;;;;;19.53;100.00;99801.94;4973095;28;20212;-76
2022/09/08 08:46:36;;;;;;;5.20;2.43;;;;;;;19.87;100.00;99801.56;4972714;28;20663;-75
2022/09/08 08:49:35;;;;;;;3.22;2.55;;;;;;;20.19;100.00;99782.97;4975119;28;20454;-75
2022/09/08 08:52:25;;;;;;;4.70;2.20;;;;;;;19.78;100.00;99803.28;4958896;29;20693;-75
2022/09/08 08:55:08;;;;;;;3.07;2.07;;;;;;;20.12;100.00;99792.75;4958605;29;20235;-75
2022/09/08 08:57:49;;;;;;;2.55;1.98;;;;;;;20.13;100.00;99799.97;4967292;28;20454;-73
2022/09/08 09:00:19;;;;;;;2.90;1.50;;;;;;;20.69;100.00;99784.63;4972888;28;20312;-74
2022/09/08 09:03:16;;;;;;;2.87;1.83;;;;;;;21.72;100.00;99787.22;4969831;28;21016;-74
2022/09/08 09:05:54;;;;;;;4.23;2.00;;;;;;;21.19;100.00;99791.59;4959389;28;20573;-74
2022/09/08 09:08:50;;;;;;;2.30;1.80;;;;;;;20.98;100.00;99784.50;4967451;28;20454;-74
2022/09/08 09:11:33;;;;;;;4.33;1.97;;;;;;;20.63;100.00;99782.47;4970911;28;20483;-75
2022/09/08 09:14:34;;;;;;;2.40;1.77;;;;;;;20.63;100.00;99782.47;4968106;28;20440;-74
2022/09/08 09:17:21;;;;;;;3.10;1.57;;;;;;;21.56;100.00;99791.50;4951617;28;20998;-76
2022/09/08 09:20:25;;;;;;;2.43;1.30;;;;;;;21.51;100.00;99782.03;4976245;28;20862;-74
2022/09/08 09:23:00;;;;;;;1.90;1.20;;;;;;;21.36;100.00;99782.53;4921561;29;20465;-75
2022/09/08 09:25:32;;;;;;;2.87;1.57;;;;;;;23.11;98.30;99766.28;4929751;29;20456;-74
2022/09/08 09:28:23;;;;;;;1.70;1.17;;;;;;;22.93;92.47;99777.31;4917032;29;20529;-75
2022/09/08 09:31:03;;;;;;;1.77;1.30;;;;;;;22.15;97.90;99772.69;4930264;29;20476;-73
2022/09/08 09:33:53;;;;;;;2.40;1.30;;;;;;;21.81;100.00;99770.69;4926880;29;20552;-76
2022/09/08 09:36:47;;;;;;;3.70;1.37;;;;;;;21.54;100.00;99770.75;4924133;29;20821;-74
2022/09/08 09:39:33;;;;;;;2.40;1.27;;;;;;;22.92;91.58;99756.38;4925107;29;20456;-75
2022/09/08 09:42:27;;;;;;;1.80;1.50;;;;;;;21.24;100.00;99776.41;4927762;29;21017;-75
2022/09/08 09:45:22;;;;;;;2.27;1.53;;;;;;;20.86;100.00;99780.22;4929322;29;20696;-74
2022/09/08 09:48:09;;;;;;;1.93;1.17;;;;;;;20.80;100.00;99778.94;4936402;29;20512;-76
2022/09/08 09:50:57;;;;;;;1.90;1.20;;;;;;;20.38;100.00;99771.13;4935298;29;20601;-74
2022/09/08 09:53:41;;;;;;;2.13;1.17;;;;;;;20.39;100.00;99775.56;4928797;29;20477;-75
2022/09/08 09:56:44;;;;;;;1.40;1.00;;;;;;;20.13;100.00;99782.72;4919169;29;20450;-74
2022/09/08 09:59:46;;;;;;;2.07;1.27;;;;;;;20.00;100.00;99781.13;4935436;28;20459;-75
2022/09/08 10:02:36;;;;;;;2.33;1.17;;;;;;;20.18;100.00;99786.72;4975329;28;20493;-76
2022/09/08 10:05:25;;;;;;;1.97;1.20;;;;;;;20.35;100.00;99782.38;4977869;28;20917;-75
2022/09/08 10:08:29;;;;;;;4.97;1.80;;;;;;;20.78;100.00;99780.97;4973403;28;20471;-75
2022/09/08 10:11:11;;;;;;;1.40;1.13;;;;;;;20.65;97.35;99779.59;4976364;28;20471;-74
2022/09/08 13:06:52;;;;;;;1.90;1.00;;;;;;;26.18;45.73;99783.50;5281776;23;20524;-69
2022/09/08 13:09:24;;;;;;;2.03;0.70;;;;;;;24.79;48.80;99780.66;4956701;29;20523;-70
2022/09/08 13:12:28;;;;;;;2.27;1.00;;;;;;;24.55;49.41;99790.69;4959030;29;20965;-70
2022/09/08 13:15:19;;;;;;;3.00;1.20;;;;;;;24.93;48.14;99789.03;4893740;29;20980;-71
2022/09/08 13:17:51;;;;;;;2.50;1.00;;;;;;;24.52;49.24;99783.63;4900987;29;20463;-71
2022/09/08 13:20:22;;;;;;;1.87;0.70;;;;;;;24.15;49.84;99789.69;4895733;29;20439;-70
2022/09/08 13:23:02;;;;;;;1.77;0.70;;;;;;;23.99;51.17;99795.16;4897684;29;20666;-70
2022/09/08 13:25:38;;;;;;;2.00;0.93;;;;;;;24.48;49.24;99789.66;4902365;29;20956;-70
2022/09/08 13:28:29;;;;;;;2.23;0.70;;;;;;;26.23;45.62;99787.63;4897659;29;20538;-72
2022/09/08 13:31:10;;;;;;;2.17;0.90;;;;;;;25.49;47.33;99783.47;4889596;29;20478;-71
2022/09/08 13:33:58;;;;;;;2.40;0.80;;;;;;;24.25;49.49;99775.75;4874834;29;21011;-71
2022/09/08 13:36:41;;;;;;;2.03;0.80;;;;;;;23.88;51.75;99788.97;4896294;29;20562;-71
2022/09/08 13:39:31;;;;;;;2.30;0.70;;;;;;;23.44;52.90;99780.94;4896624;29;20936;-72
2022/09/08 13:42:21;;;;;;;2.23;0.80;;;;;;;23.15;54.36;99775.88;4895963;29;20454;-72
2022/09/08 13:45:02;;;;;;;3.90;0.97;;;;;;;24.46;49.97;99787.06;4890530;29;20542;-71
2022/09/08 13:47:45;;;;;;;2.20;0.90;;;;;;;26.18;45.73;99785.41;4894041;29;20447;-71
2022/09/08 13:50:27;;;;;;;1.67;0.83;;;;;;;24.85;48.74;99793.69;4937530;29;20459;-71
2022/09/08 13:53:16;;;;;;;1.93;0.93;;;;;;;24.22;51.50;99784.31;4941102;29;20493;-70
2022/09/08 13:56:04;;;;;;;3.00;0.90;;;;;;;24.67;50.67;99772.78;4940388;29;20469;-70
2022/09/08 13:58:34;;;;;;;3.57;0.90;;;;;;;25.51;48.04;99778.66;4955198;29;20467;-70
2022/09/08 14:01:31;;;;;;;2.03;0.90;;;;;;;25.88;47.20;99773.44;4946953;29;20535;-71
2022/09/08 14:04:03;;;;;;;1.50;0.63;;;;;;;24.89;50.00;99776.66;4949516;28;20462;-71
2022/09/08 14:06:40;;;;;;;3.30;0.70;;;;;;;24.47;50.39;99772.31;4957024;29;20554;-70
2022/09/08 14:09:13;;;;;;;1.80;0.93;;;;;;;23.81;52.60;99771.44;4955307;28;20503;-71
2022/09/08 14:11:54;;;;;;;3.43;1.10;;;;;;;23.40;54.32;99770.47;4950117;29;20472;-72
2022/09/08 14:14:40;;;;;;;2.73;0.80;;;;;;;22.89;55.95;99770.44;4955668;29;20942;-70
2022/09/08 14:17:20;;;;;;;2.03;0.90;;;;;;;22.87;57.03;99775.22;4955276;28;20486;-69
2022/09/08 14:19:54;;;;;;;3.00;0.90;;;;;;;22.74;56.44;99794.88;4954031;28;20475;-70
2022/09/08 14:22:32;;;;;;;3.53;1.07;;;;;;;22.53;57.90;99777.97;4956041;29;20794;-70
2022/09/08 14:25:05;;;;;;;2.27;0.90;;;;;;;22.37;57.78;99786.94;4955120;28;20483;-70
2022/09/08 14:27:44;;;;;;;2.63;0.90;;;;;;;22.20;57.84;99780.44;4953107;28;20456;-70
2022/09/08 14:30:18;;;;;;;1.87;1.10;;;;;;;22.19;57.98;99796.03;4953256;28;20463;-71
2022/09/08 14:32:59;;;;;;;4.23;0.80;;;;;;;22.50;57.16;99781.88;4954216;29;20487;-71
2022/09/08 14:35:40;;;;;;;2.90;0.90;;;;;;;23.34;54.78;99788.50;4957870;29;20474;-69
2022/09/08 14:38:26;;;;;;;1.97;1.00;;;;;;;24.60;51.12;99793.75;4960440;29;20543;-70
2022/09/08 14:41:05;;;;;;;2.33;0.90;;;;;;;26.41;46.23;99788.13;4959449;29;20814;-71
2022/09/08 14:43:51;;;;;;;1.40;0.60;;;;;;;25.94;46.66;99779.06;4951517;28;20459;-70
2022/09/08 14:46:31;;;;;;;2.90;1.10;;;;;;;26.01;45.73;99790.22;4957179;29;20456;-69
2022/09/08 14:49:15;;;;;;;3.57;1.10;;;;;;;26.83;44.63;99783.94;4954726;28;20456;-71
2022/09/08 14:51:50;;;;;;;2.43;0.80;;;;;;;26.76;nan;99771.94;4949448;29;20962;-70
2022/09/08 14:54:28;;;;;;;3.27;0.87;;;;;;;26.42;46.71;99790.72;4942863;29;20891;-71
2022/09/08 14:57:12;;;;;;;3.10;0.90;;;;;;;26.81;45.82;99772.22;4943186;28;20480;-71
2022/09/08 14:59:58;;;;;;;2.37;0.90;;;;;;;27.05;45.18;99779.38;4953150;28;20456;-69
2022/09/08 15:02:28;;;;;;;2.83;1.00;;;;;;;27.39;44.70;99783.44;4956846;29;20428;-70
2022/09/08 15:05:08;;;;;;;2.50;1.00;;;;;;;27.07;44.56;99791.09;4955005;28;20488;-69
2022/09/08 15:07:35;;;;;;;3.40;1.00;;;;;;;27.28;44.79;99782.03;4947604;28;20460;-69
2022/09/08 15:10:16;;;;;;;1.87;0.70;;;;;;;26.93;44.65;99798.34;4955120;28;20464;-71
2022/09/08 15:13:01;;;;;;;3.53;0.80;;;;;;;25.41;46.61;99789.03;4950122;29;20817;-70
2022/09/08 15:15:34;;;;;;;1.90;0.70;;;;;;;24.34;50.94;99786.56;4939702;28;20563;-69
2022/09/08 15:18:14;;;;;;;2.00;0.70;;;;;;;24.49;49.86;99791.38;4952781;28;20468;-70
2022/09/08 15:20:41;;;;;;;2.17;0.60;;;;;;;24.53;49.13;99804.66;4944587;29;20448;-69
2022/09/08 15:23:21;;;;;;;2.13;0.80;;;;;;;23.06;52.75;99785.13;4953085;29;20444;-68
2022/09/08 15:26:02;;;;;;;8.60;0.90;;;;;;;24.15;50.94;99800.69;4946646;28;20604;-69
2022/09/08 15:28:31;;;;;;;1.77;0.77;;;;;;;23.76;52.02;99801.31;4953731;29;20445;-68
2022/09/08 15:31:27;;;;;;;1.43;0.80;;;;;;;23.75;51.92;99796.00;4952262;28;20456;-69
2022/09/08 15:34:04;;;;;;;1.83;0.90;;;;;;;24.61;50.01;99792.75;4953216;28;20456;-69
2022/09/08 15:36:40;;;;;;;2.47;0.80;;;;;;;25.06;48.53;99794.00;4944893;29;20486;-69
2022/09/08 15:39:16;;;;;;;2.43;0.77;;;;;;;25.14;48.57;99796.69;4953413;29;20442;-68
2022/09/08 15:41:48;;;;;;;5.97;0.70;;;;;;;25.64;47.83;99791.81;4953952;28;20460;-69
2022/09/08 15:44:24;;;;;;;2.20;0.80;;;;;;;25.30;48.84;99790.28;4948208;28;20456;-69
2022/09/08 15:47:02;;;;;;;2.40;1.20;;;;;;;23.24;56.21;99788.63;4947886;28;20515;-68
2022/09/08 15:49:43;;;;;;;3.77;0.90;;;;;;;22.73;59.53;99776.72;4951722;29;20566;-70
2022/09/08 15:52:45;;;;;;;2.87;1.10;;;;;;;22.61;61.12;99784.38;4952628;28;20477;-70
2022/09/08 15:55:27;;;;;;;2.70;0.83;;;;;;;22.48;62.05;99778.44;4956720;28;20487;-69
2022/09/08 15:58:05;;;;;;;5.00;1.37;;;;;;;22.17;63.58;99783.50;4955276;29;21060;-70
2022/09/08 16:00:37;;;;;;;3.27;1.07;;;;;;;22.11;64.38;99774.00;4959287;29;20440;-68
2022/09/08 16:03:06;;;;;;;2.80;1.00;;;;;;;22.14;64.43;99772.81;4949665;28;20548;-69
2022/09/08 16:05:51;;;;;;;2.10;0.90;;;;;;;21.99;65.66;99778.03;4957665;28;20472;-69
2022/09/08 16:08:32;;;;;;;2.07;1.13;;;;;;;21.99;66.16;99773.41;4957539;28;20460;-69
2022/09/08 16:11:07;;;;;;;2.23;0.90;;;;;;;21.93;66.01;99776.78;4953699;29;20443;-71
2022/09/08 16:13:43;;;;;;;3.00;1.03;;;;;;;21.93;66.35;99784.16;4938068;29;20472;-69
2022/09/08 16:16:31;;;;;;;3.77;0.90;;;;;;;21.81;67.27;99781.66;4952379;28;20867;-70
2022/09/08 16:19:03;;;;;;;2.17;1.13;;;;;;;21.75;68.90;99785.00;4954950;29;20479;-70
2022/09/08 16:21:31;;;;;;;3.33;1.33;;;;;;;21.77;69.36;99787.59;4950011;28;20466;-69
2022/09/08 16:24:00;;;;;;;2.83;1.10;;;;;;;21.73;69.11;99781.59;4955220;29;21086;-70
2022/09/08 16:26:47;;;;;;;2.40;1.20;;;;;;;21.67;70.27;99779.47;4952098;28;20484;-69
2022/09/08 16:29:34;;;;;;;3.03;1.17;;;;;;;21.68;71.58;99780.31;4951324;29;20467;-70
2022/09/08 16:32:05;;;;;;;5.23;1.30;;;;;;;21.68;71.38;99791.28;4948148;28;20558;-70
2022/09/08 16:34:34;;;;;;;2.00;1.00;;;;;;;21.67;71.30;99795.91;4947200;28;20487;-73
2022/09/08 16:37:23;;;;;;;3.73;1.40;;;;;;;21.57;71.88;99803.31;4947675;28;20538;-70
2022/09/08 16:40:11;;;;;;;3.50;1.33;;;;;;;21.53;72.37;99793.72;4951820;28;20463;-70
2022/09/08 16:42:49;;;;;;;4.43;1.07;;;;;;;21.44;73.02;99790.03;4945956;28;20448;-70
2022/09/08 16:45:49;;;;;;;5.37;1.33;;;;;;;21.28;74.24;99798.88;4959708;28;20483;-70
2022/09/08 16:48:22;;;;;;;2.40;1.10;;;;;;;21.22;74.13;99791.28;4955205;28;20475;-71
2022/09/08 16:51:07;;;;;;;3.40;1.30;;;;;;;21.12;74.02;99791.34;4950108;28;20947;-69
2022/09/08 16:53:41;;;;;;;3.50;1.70;;;;;;;21.06;74.25;99797.41;4963753;29;20478;-69
2022/09/08 16:56:19;;;;;;;4.80;1.53;;;;;;;21.08;75.41;99800.00;4957317;28;20476;-70
2022/09/08 16:59:01;;;;;;;2.67;1.53;;;;;;;20.87;77.74;99797.47;4949027;29;20454;-69
2022/09/08 17:01:34;;;;;;;3.43;1.60;;;;;;;20.89;78.56;99800.94;4959775;29;20432;-69
2022/09/08 17:04:20;;;;;;;3.83;1.40;;;;;;;20.78;80.12;99799.25;4959622;29;20431;-69
2022/09/08 17:07:00;;;;;;;2.63;1.30;;;;;;;20.66;81.19;99790.38;4941980;29;20891;-70
2022/09/08 17:09:41;;;;;;;3.03;1.70;;;;;;;20.57;81.99;99786.66;4959184;29;20443;-68
2022/09/08 17:12:14;;;;;;;2.30;1.47;;;;;;;20.45;83.28;99811.56;4960916;29;20468;-69
2022/09/08 17:14:41;;;;;;;3.27;1.40;;;;;;;20.41;82.84;99795.44;4960134;29;20436;-71
2022/09/08 17:17:34;;;;;;;2.53;1.60;;;;;;;20.29;83.88;99793.03;4960209;29;20471;-70
2022/09/08 17:20:10;;;;;;;2.07;1.30;;;;;;;20.22;83.84;99795.50;4961736;29;20193;-70
2022/09/08 17:23:03;;;;;;;2.75;1.98;;;;;;;20.15;85.04;99797.94;4947195;29;20437;-71
2022/09/08 17:25:40;;;;;;;6.05;2.10;;;;;;;20.11;85.43;99796.50;4941094;29;20229;-71
2022/09/08 17:28:28;;;;;;;4.63;1.80;;;;;;;20.11;85.99;99787.47;4941327;29;20193;-72
2022/09/08 17:31:14;;;;;;;3.17;1.53;;;;;;;19.95;86.75;99791.63;4941433;29;20193;-70
2022/09/08 17:34:00;;;;;;;3.03;1.55;;;;;;;19.90;86.74;99782.13;4941213;29;20468;-70
2022/09/08 17:36:37;;;;;;;5.00;2.22;;;;;;;19.83;87.54;99781.88;4950515;29;20725;-70
2022/09/08 17:39:24;;;;;;;4.28;1.65;;;;;;;19.75;88.62;99789.91;4958452;29;20243;-71
2022/09/08 17:41:54;;;;;;;2.10;1.65;;;;;;;19.77;89.17;99783.28;4940569;29;20209;-72
2022/09/08 17:44:30;;;;;;;2.72;1.70;;;;;;;19.66;90.60;99786.13;4941820;29;20620;-70
2022/09/08 17:47:01;;;;;;;5.22;2.75;;;;;;;19.68;90.63;99789.59;4940015;29;20225;-70
2022/09/08 17:49:36;;;;;;;3.55;1.85;;;;;;;19.67;92.07;99800.66;4946866;29;20191;-70
2022/09/08 17:52:18;;;;;;;4.85;1.73;;;;;;;19.63;92.81;99800.09;4958597;29;20216;-71
2022/09/08 17:54:56;;;;;;;3.17;1.75;;;;;;;19.55;93.75;99799.94;4957010;28;20256;-70
2022/09/08 17:57:25;;;;;;;3.75;2.03;;;;;;;19.42;95.44;99794.72;4957589;29;20280;-71
2022/09/08 18:00:14;;;;;;;3.78;1.70;;;;;;;19.42;96.35;99796.59;4950001;29;20574;-70
2022/09/08 18:03:17;;;;;;;3.83;1.90;;;;;;;19.31;97.44;99806.66;4944823;29;20348;-69
2022/09/08 18:05:50;;;;;;;5.05;2.00;;;;;;;19.38;97.75;99801.50;4958211;29;20236;-71
2022/09/08 18:08:34;;;;;;;73.93;55.55;;;;;;;19.43;99.15;99806.53;4940715;29;20666;-77
2022/09/08 18:11:32;;;;;;;10.90;7.30;;;;;;;19.47;98.54;99803.38;4942649;29;20575;-78
2022/09/08 18:14:10;;;;;;;3.70;2.63;;;;;;;19.49;98.08;99805.94;4942456;29;20209;-76
2022/09/08 18:16:37;;;;;;;5.75;2.70;;;;;;;19.45;99.59;99804.53;4942800;29;20225;-77
2022/09/08 18:19:20;;;;;;;4.78;2.83;;;;;;;19.41;100.00;99822.19;4941458;29;20202;-77
2022/09/08 18:22:02;;;;;;;5.95;3.00;;;;;;;19.31;100.00;99819.41;4942460;29;20205;-76
2022/09/08 18:24:32;;;;;;;3.80;2.03;;;;;;;19.32;100.00;99819.28;4952722;29;20212;-77
2022/09/08 18:27:17;;;;;;;4.90;2.00;;;;;;;19.29;100.00;99815.97;4944592;29;20232;-77
2022/09/08 18:29:47;;;;;;;5.20;1.90;;;;;;;19.28;100.00;99825.16;4949781;29;20197;-77
2022/09/08 18:32:22;;;;;;;4.72;2.30;;;;;;;19.25;100.00;99826.31;4941328;29;20287;-74
2022/09/08 18:35:03;;;;;;;4.38;2.78;;;;;;;19.17;100.00;99829.75;4949858;28;20204;-78
2022/09/08 18:37:29;;;;;;;4.30;2.10;;;;;;;19.22;100.00;99831.16;4962016;29;20172;-75
2022/09/08 18:40:00;;;;;;;7.85;2.38;;;;;;;19.13;100.00;99839.22;4962937;29;20212;-77
2022/09/08 18:42:34;;;;;;;3.05;1.83;;;;;;;19.14;100.00;99848.25;4945867;29;20221;-79
2022/09/08 18:45:40;;;;;;;5.85;2.13;;;;;;;19.01;100.00;99844.88;4944168;29;20335;-78
2022/09/08 18:48:19;;;;;;;5.00;2.35;;;;;;;18.99;100.00;99845.03;4960785;29;20219;-78
2022/09/08 18:51:13;;;;;;;4.35;2.40;;;;;;;19.05;100.00;99849.09;4963116;29;20205;-76
2022/09/08 18:53:59;;;;;;;4.93;2.53;;;;;;;19.01;100.00;99847.63;4962625;29;20260;-78
2022/09/08 18:56:31;;;;;;;3.67;2.15;;;;;;;19.07;100.00;99849.81;4962784;29;20271;-77
2022/09/08 18:59:27;;;;;;;6.95;2.53;;;;;;;19.15;100.00;99844.50;4961755;29;20204;-77
2022/09/08 19:02:04;;;;;;;8.25;2.70;;;;;;;19.07;100.00;99849.81;4946313;29;20834;-77
2022/09/08 19:04:44;;;;;;;5.47;4.72;;;;;;;19.00;100.00;99851.38;4944045;29;20271;-80
2022/09/08 19:07:24;;;;;;;9.57;5.25;;;;;;;18.81;100.00;99852.13;4944117;29;20229;-76
2022/09/08 19:09:59;;;;;;;4.05;3.00;;;;;;;18.81;100.00;99857.56;4954946;29;20208;-78
